Dalzell, IL

10:44 AM CST on February 19, 2017 (GMT -0600)
Illinois Valley Regional-Duncan

Weather History for KVYS - October, 2012

Change the Weather History Date:

Tuesday, October 9, 2012

  Actual Average Record
Temperature  
Mean Temperature 53 °F -  
Max Temperature 66 °F 67 °F 88 °F (2010)
Min Temperature 41 °F 42 °F 27 °F (1987)
Degree Days  
Heating Degree Days 12    
Growing Degree Days 3 (Base 50)    
Moisture  
Dew Point 39 °F    
Average Humidity 64    
Maximum Humidity 93    
Minimum Humidity 37    
Precipitation  
Precipitation 0.22 in - - ()
Sea Level Pressure  
Sea Level Pressure 29.92 in    
Wind  
Wind Speed 13 mph (SW)    
Max Wind Speed 29 mph    
Max Gust Speed 37 mph    
Visibility 10 miles    
Events Rain    
Averages and records for this station are not official NWS values.
T = Trace of Precipitation, MM = Missing Value Source: NWS Daily Summary

Daily Weather History Graph

Daily Weather History Graph

Search for Another Location

Airport or City:

Trip Planner

Search our weather history database for the weather conditions in past years. The results will help you decide how hot, cold, wet, or windy it might be!

Date:

Astronomy

Oct. 09, 2012 Rise Set
Actual Time 7:02 AM CDT 6:24 PM CDT
Civil Twilight 6:34 AM CDT 6:52 PM CDT
Nautical Twilight 6:02 AM CDT 7:23 PM CDT
Astronomical Twilight 5:30 AM CDT 7:56 PM CDT
Moon 12:35 AM CDT (10/9) 2:55 PM CDT (10/9)
Length of Visible Light 12h 17m
Length of Day
11h 21m
Last Quarter, 36% of the Moon is Illuminated
Oct 9
Last Quarter
Oct 15
New
Oct 21
First Quarter
Oct 29
Full
Nov 6
Last Quarter

Hourly Weather History & Observations

Time (CDT) Temp. Windchill Dew Point Humidity Pressure Visibility Wind Dir Wind Speed Gust Speed Precip Events Conditions
12:15 AM 47.8 °F - 33.8 °F 58% 30.00 in 10.0 mi South 9.2 mph - N/A   Clear
12:35 AM 46.4 °F 41.1 °F 33.8 °F 62% 30.00 in 10.0 mi South 11.5 mph - N/A   Clear
12:55 AM 45.9 °F 40.4 °F 33.8 °F 63% 29.99 in 10.0 mi South 11.5 mph - N/A   Clear
1:15 AM 45.5 °F 39.9 °F 33.8 °F 64% 29.99 in 10.0 mi South 11.5 mph - N/A   Clear
1:35 AM 44.6 °F 39.2 °F 33.8 °F 66% 29.99 in 10.0 mi South 10.4 mph - N/A   Clear
1:55 AM 44.8 °F 39.9 °F 33.8 °F 65% 29.99 in 10.0 mi South 9.2 mph - N/A   Clear
2:35 AM 44.6 °F 39.2 °F 33.8 °F 66% 29.98 in 10.0 mi South 10.4 mph - N/A   Clear
2:55 AM 43.0 °F 37.7 °F 33.8 °F 70% 29.98 in 10.0 mi South 9.2 mph - N/A   Clear
3:15 AM 42.8 °F 40.1 °F 34.0 °F 71% 29.98 in 10.0 mi SSW 4.6 mph - N/A   Clear
3:35 AM 41.0 °F 35.2 °F 33.8 °F 76% 29.97 in 10.0 mi South 9.2 mph - N/A   Clear
3:55 AM 41.9 °F 36.9 °F 34.7 °F 76% 29.97 in 10.0 mi South 8.1 mph - N/A   Clear
4:15 AM 42.3 °F 36.8 °F 34.9 °F 75% 29.97 in 10.0 mi South 9.2 mph - N/A   Clear
4:35 AM 42.1 °F 36.6 °F 35.1 °F 76% 29.97 in 10.0 mi South 9.2 mph - N/A   Clear
4:55 AM 41.9 °F 35.9 °F 35.2 °F 77% 29.96 in 10.0 mi South 10.4 mph - N/A   Clear
5:15 AM 41.4 °F 35.2 °F 35.1 °F 78% 29.97 in 10.0 mi South 10.4 mph - N/A   Clear
5:35 AM 41.9 °F 35.4 °F 35.4 °F 78% 29.97 in 10.0 mi South 11.5 mph - N/A   Mostly Cloudy
5:55 AM 42.8 °F 36.2 °F 35.6 °F 76% 29.96 in 10.0 mi South 12.7 mph - N/A   Mostly Cloudy
6:15 AM 42.3 °F 36.8 °F 35.6 °F 77% 29.96 in 10.0 mi South 9.2 mph - N/A   Scattered Clouds
6:35 AM 41.0 °F 35.8 °F 35.6 °F 81% 29.96 in 10.0 mi South 8.1 mph - N/A   Clear
6:55 AM 41.4 °F 35.2 °F 36.0 °F 81% 29.95 in 10.0 mi South 10.4 mph - N/A   Clear
7:15 AM 42.3 °F 35.9 °F 36.5 °F 80% 29.95 in 10.0 mi SSW 11.5 mph - N/A   Clear
7:35 AM 43.9 °F 36.8 °F 37.4 °F 78% 29.95 in 10.0 mi SSW 15.0 mph - N/A   Scattered Clouds
7:55 AM 44.6 °F 37.8 °F 37.6 °F 76% 29.95 in 10.0 mi SSW 15.0 mph - N/A   Scattered Clouds
8:15 AM 45.9 °F 39.1 °F 37.8 °F 73% 29.94 in 10.0 mi South 16.1 mph - N/A   Clear
8:35 AM 47.3 °F - 38.3 °F 71% 29.95 in 10.0 mi SSW 15.0 mph - N/A   Clear
8:55 AM 48.6 °F - 38.7 °F 69% 29.94 in 10.0 mi South 18.4 mph - N/A   Clear
9:15 AM 50.4 °F - 39.2 °F 66% 29.93 in 10.0 mi South 17.3 mph - N/A   Clear
9:35 AM 52.2 °F - 39.4 °F 62% 29.93 in 10.0 mi SSW 19.6 mph 27.6 mph N/A   Clear
9:55 AM 53.4 °F - 39.9 °F 60% 29.93 in 10.0 mi SSW 20.7 mph 27.6 mph N/A   Clear
10:15 AM 55.0 °F - 39.9 °F 57% 29.93 in 10.0 mi SSW 18.4 mph 23.0 mph N/A   Clear
10:35 AM 56.3 °F - 39.6 °F 53% 29.93 in 10.0 mi SSW 19.6 mph 26.5 mph N/A   Clear
10:55 AM 57.4 °F - 39.7 °F 52% 29.93 in 10.0 mi SW 18.4 mph - N/A   Clear
11:15 AM 57.6 °F - 39.6 °F 51% 29.91 in 10.0 mi SW 18.4 mph - N/A   Clear
11:35 AM 59.0 °F - 39.2 °F 48% 29.91 in 10.0 mi SSW 19.6 mph 25.3 mph N/A   Clear
11:55 AM 59.9 °F - 40.5 °F 49% 29.90 in 10.0 mi SW 18.4 mph 23.0 mph N/A   Clear
12:15 PM 61.2 °F - 40.5 °F 47% 29.89 in 10.0 mi SW 20.7 mph 25.3 mph N/A   Clear
12:35 PM 63.1 °F - 40.8 °F 44% 29.88 in 10.0 mi SW 21.9 mph 26.5 mph N/A   Clear
12:55 PM 63.3 °F - 40.3 °F 43% 29.88 in 10.0 mi SSW 21.9 mph 31.1 mph N/A   Clear
1:15 PM 63.5 °F - 40.1 °F 42% 29.86 in 10.0 mi SSW 21.9 mph 27.6 mph N/A   Clear
1:35 PM 63.7 °F - 39.7 °F 41% 29.85 in 10.0 mi SSW 20.7 mph 28.8 mph N/A   Clear
1:55 PM 63.7 °F - 40.1 °F 42% 29.85 in 10.0 mi SSW 18.4 mph - N/A   Clear
2:15 PM 63.9 °F - 39.6 °F 41% 29.84 in 10.0 mi SSW 23.0 mph 28.8 mph N/A   Clear
2:35 PM 64.4 °F - 39.2 °F 40% 29.83 in 10.0 mi SSW 19.6 mph 26.5 mph N/A   Clear
2:55 PM 64.9 °F - 39.4 °F 39% 29.83 in 10.0 mi SSW 21.9 mph 27.6 mph N/A   Clear
3:15 PM 65.7 °F - 39.0 °F 38% 29.82 in 10.0 mi SW 18.4 mph 26.5 mph N/A   Clear
3:35 PM 65.7 °F - 38.8 °F 37% 29.82 in 10.0 mi SSW 20.7 mph 27.6 mph N/A   Clear
3:55 PM 65.7 °F - 39.4 °F 38% 29.82 in 10.0 mi SW 21.9 mph - N/A   Clear
4:15 PM 65.7 °F - 39.6 °F 38% 29.82 in 10.0 mi SSW 19.6 mph 31.1 mph N/A   Clear
4:35 PM 65.3 °F - 40.1 °F 40% 29.82 in 10.0 mi SW 17.3 mph - N/A   Clear
4:55 PM 64.9 °F - 40.5 °F 41% 29.82 in 10.0 mi SW 18.4 mph 23.0 mph N/A   Scattered Clouds
5:15 PM 64.0 °F - 40.5 °F 42% 29.82 in 10.0 mi SW 13.8 mph 21.9 mph N/A   Mostly Cloudy
5:35 PM 63.3 °F - 40.8 °F 44% 29.82 in 10.0 mi SW 11.5 mph - N/A   Overcast
5:55 PM 63.5 °F - 40.8 °F 43% 29.82 in 10.0 mi SW 17.3 mph 21.9 mph N/A   Overcast
6:15 PM 62.1 °F - 40.6 °F 45% 29.84 in 10.0 mi WNW 11.5 mph - N/A   Overcast
6:35 PM 60.3 °F - 40.5 °F 48% 29.84 in 10.0 mi West 9.2 mph - N/A   Overcast
6:55 PM 56.8 °F - 42.8 °F 59% 29.86 in 10.0 mi WNW 20.7 mph 31.1 mph N/A   Overcast
7:15 PM 53.2 °F - 40.8 °F 63% 29.88 in 10.0 mi NW 24.2 mph 29.9 mph N/A   Overcast
7:35 PM 50.9 °F - 39.7 °F 66% 29.90 in 10.0 mi NW 28.8 mph 36.8 mph N/A   Overcast
7:55 PM 48.7 °F - 42.1 °F 78% 29.92 in 10.0 mi NW 15.0 mph - N/A Rain Rain
8:15 PM 46.4 °F 41.1 °F 42.8 °F 87% 29.93 in 7.0 mi NW 11.5 mph - 0.03 in Rain Rain
8:35 PM 45.9 °F 39.7 °F 42.8 °F 89% 29.93 in 7.0 mi NNW 13.8 mph 19.6 mph 0.06 in Rain Light Rain
8:55 PM 45.0 °F 38.2 °F 41.9 °F 89% 29.93 in 7.0 mi NNW 15.0 mph - 0.08 in Rain Light Rain
9:15 PM 44.6 °F 38.8 °F 41.9 °F 90% 29.94 in 7.0 mi NNW 11.5 mph - 0.02 in Rain Rain
9:35 PM 44.4 °F 39.5 °F 41.9 °F 91% 29.94 in 7.0 mi NW 9.2 mph - 0.04 in Rain Rain
9:55 PM 44.1 °F 38.6 °F 41.9 °F 92% 29.95 in 7.0 mi NW 10.4 mph - 0.07 in Rain Rain
10:15 PM 43.7 °F 40.3 °F 41.2 °F 91% 29.95 in 7.0 mi NW 5.8 mph - 0.04 in Rain Rain
10:35 PM 43.7 °F - 41.4 °F 91% 29.95 in 10.0 mi Calm Calm - 0.06 in Rain Light Rain
10:55 PM 43.7 °F - 41.5 °F 92% 29.95 in 10.0 mi Calm Calm - 0.07 in Rain Rain
11:15 PM 43.7 °F 41.1 °F 41.5 °F 92% 29.95 in 10.0 mi WSW 4.6 mph - N/A   Overcast
11:35 PM 43.7 °F 40.3 °F 41.5 °F 92% 29.96 in 10.0 mi WSW 5.8 mph - N/A   Overcast
11:55 PM 43.7 °F 39.7 °F 41.9 °F 93% 29.96 in 10.0 mi WSW 6.9 mph - N/A   Overcast